createdAt,value
2022-09-06T00:01:34.548Z,67.48
2022-09-06T00:04:03.727Z,66.85
2022-09-06T00:06:32.585Z,66.95
2022-09-06T00:09:01.533Z,67.07
2022-09-06T00:11:30.516Z,66.86
2022-09-06T00:13:59.336Z,66.56
2022-09-06T00:16:30.517Z,66.59
2022-09-06T00:18:59.954Z,66.62
2022-09-06T00:21:30.969Z,66.58
2022-09-06T00:23:59.762Z,66.96
2022-09-06T00:26:28.660Z,67.01
2022-09-06T00:28:57.539Z,66.93
2022-09-06T00:31:27.839Z,66.61
2022-09-06T00:33:56.690Z,66.51
2022-09-06T00:36:25.495Z,66.35
2022-09-06T00:38:54.341Z,66.12
2022-09-06T00:41:23.630Z,66.21
2022-09-06T00:43:52.404Z,66.26
2022-09-06T00:46:26.216Z,66.36
2022-09-06T00:49:03.055Z,66.61
2022-09-06T00:51:34.584Z,66.53
2022-09-06T00:54:06.500Z,66.30
2022-09-06T00:56:39.258Z,66.17
2022-09-06T00:59:08.557Z,66.17
2022-09-06T01:01:38.334Z,65.97
2022-09-06T01:04:07.523Z,65.90
2022-09-06T01:07:02.186Z,65.77
2022-09-06T01:09:52.629Z,65.80
2022-09-06T01:12:46.932Z,65.77
2022-09-06T01:15:52.677Z,65.61
2022-09-06T01:19:14.368Z,65.51
2022-09-06T01:22:05.294Z,65.17
2022-09-06T01:24:55.991Z,65.72
2022-09-06T01:27:58.368Z,65.52
2022-09-06T01:30:27.302Z,65.59
2022-09-06T01:33:16.831Z,65.48
2022-09-06T01:35:54.460Z,65.21
2022-09-06T01:38:23.536Z,64.92
2022-09-06T01:40:52.379Z,65.15
2022-09-06T01:43:35.770Z,65.33
2022-09-06T01:46:31.014Z,64.87
2022-09-06T01:49:08.674Z,64.87
2022-09-06T01:51:43.235Z,64.80
2022-09-06T01:54:26.996Z,64.84
2022-09-06T01:57:01.340Z,64.73
2022-09-06T02:00:04.347Z,64.71
2022-09-06T02:03:06.283Z,64.53
2022-09-06T02:06:04.134Z,64.27
2022-09-06T02:08:39.150Z,64.30
2022-09-06T02:11:09.974Z,63.99
2022-09-06T02:13:54.874Z,63.91
2022-09-06T02:16:27.569Z,63.95
2022-09-06T02:19:12.819Z,63.82
2022-09-06T02:21:45.874Z,63.58
2022-09-06T02:24:22.277Z,63.59
2022-09-06T02:26:51.405Z,63.37
2022-09-06T02:29:20.561Z,63.56
2022-09-06T02:32:15.579Z,63.35
2022-09-06T02:34:46.742Z,63.14
2022-09-06T02:37:16.977Z,62.75
2022-09-06T02:39:46.024Z,62.51
2022-09-06T02:42:18.088Z,62.64
2022-09-06T02:44:46.991Z,62.90
2022-09-06T02:47:16.296Z,62.70
2022-09-06T02:49:45.660Z,62.89
2022-09-06T02:52:14.464Z,62.44
2022-09-06T02:54:43.230Z,62.13
2022-09-06T02:57:11.981Z,62.27
2022-09-06T02:59:40.699Z,62.25
2022-09-06T03:02:10.157Z,62.30
2022-09-06T03:04:39.157Z,62.30
2022-09-06T03:07:07.974Z,62.13
2022-09-06T03:09:36.687Z,61.89
2022-09-06T03:12:05.558Z,61.67
2022-09-06T03:14:36.616Z,61.49
2022-09-06T03:17:05.573Z,61.42
2022-09-06T03:19:34.356Z,61.76
2022-09-06T03:22:03.149Z,61.20
2022-09-06T03:24:32.016Z,61.21
2022-09-06T03:27:00.854Z,60.96
2022-09-06T03:29:29.620Z,60.93
2022-09-06T03:31:58.482Z,60.92
2022-09-06T03:34:27.300Z,60.64
2022-09-06T03:36:56.030Z,60.40
2022-09-06T03:39:24.929Z,60.30
2022-09-06T03:41:53.724Z,60.12
2022-09-06T03:44:22.503Z,59.40
2022-09-06T03:46:52.741Z,59.23
2022-09-06T03:49:21.553Z,59.16
2022-09-06T03:51:50.528Z,58.93
2022-09-06T03:54:19.414Z,58.38
2022-09-06T03:56:48.168Z,57.82
2022-09-06T03:59:17.009Z,57.78
2022-09-06T04:01:46.140Z,57.26
2022-09-06T04:04:15.198Z,56.47
2022-09-06T04:06:44.012Z,55.43
2022-09-06T04:09:12.913Z,54.54
2022-09-06T04:11:44.934Z,54.06
2022-09-06T04:14:14.007Z,53.07
2022-09-06T04:16:42.963Z,52.11
2022-09-06T04:19:11.792Z,51.46
2022-09-06T04:21:40.740Z,50.66
2022-09-06T04:24:09.513Z,49.41
2022-09-06T04:26:38.360Z,48.31
2022-09-06T04:29:07.167Z,47.39
2022-09-06T04:31:36.023Z,47.35
2022-09-06T04:34:04.747Z,46.54
2022-09-06T04:36:33.617Z,45.94
2022-09-06T04:39:02.432Z,46.11
2022-09-06T04:41:31.196Z,45.30
2022-09-06T04:44:00.192Z,45.51
2022-09-06T04:46:30.640Z,45.97
2022-09-06T04:48:59.695Z,46.84
2022-09-06T04:51:28.562Z,47.36
2022-09-06T04:53:57.412Z,47.71
2022-09-06T04:56:27.447Z,47.55
2022-09-06T04:58:56.948Z,47.47
2022-09-06T05:01:27.020Z,46.62
2022-09-06T05:03:57.128Z,45.92
2022-09-06T05:06:26.864Z,45.08
2022-09-06T05:08:55.671Z,44.74
2022-09-06T05:11:24.493Z,44.20
2022-09-06T05:13:53.449Z,44.41
2022-09-06T05:16:22.302Z,44.61
2022-09-06T05:18:51.130Z,45.04
2022-09-06T05:21:20.842Z,43.72
2022-09-06T05:23:49.852Z,43.43
2022-09-06T05:26:18.883Z,44.27
2022-09-06T05:28:49.082Z,43.46
2022-09-06T05:31:29.692Z,44.03
2022-09-06T05:33:59.539Z,44.96
2022-09-06T05:36:30.036Z,45.55
2022-09-06T05:38:59.729Z,45.65
2022-09-06T05:41:28.888Z,44.99
2022-09-06T05:43:57.708Z,44.93
2022-09-06T05:46:27.242Z,45.11
2022-09-06T05:49:09.881Z,46.08
2022-09-06T05:51:38.864Z,46.48
2022-09-06T05:54:10.972Z,46.89
2022-09-06T05:56:39.890Z,46.99
2022-09-06T05:59:08.951Z,46.83
2022-09-06T06:01:38.335Z,47.10
2022-09-06T06:04:08.630Z,47.07
2022-09-06T06:06:37.445Z,47.55
2022-09-06T06:09:06.543Z,47.91
2022-09-06T06:11:35.585Z,48.62
2022-09-06T06:14:05.603Z,48.70
2022-09-06T06:16:34.753Z,48.77
2022-09-06T06:19:04.061Z,48.88
2022-09-06T06:21:34.185Z,48.83
2022-09-06T06:24:05.235Z,48.83
2022-09-06T06:26:36.369Z,49.14
2022-09-06T06:29:08.650Z,48.75
2022-09-06T06:31:39.159Z,48.81
2022-09-06T06:34:09.034Z,48.71
2022-09-06T06:36:38.860Z,48.92
2022-09-06T06:39:09.301Z,48.14
2022-09-06T06:41:38.374Z,48.32
2022-09-06T06:44:28.737Z,48.74
2022-09-06T06:46:58.818Z,48.29
2022-09-06T06:49:27.734Z,48.31
2022-09-06T06:51:56.612Z,49.08
2022-09-06T06:54:25.511Z,48.93
2022-09-06T06:56:54.529Z,48.97
2022-09-06T06:59:23.317Z,49.04
2022-09-06T07:01:53.327Z,49.46
2022-09-06T07:04:22.558Z,49.99
2022-09-06T07:12:32.022Z,51.50
2022-09-06T07:15:00.882Z,51.91
2022-09-06T07:17:31.451Z,51.96
2022-09-06T07:20:16.175Z,52.46
2022-09-06T07:22:45.412Z,52.27
2022-09-06T07:25:19.060Z,52.06
2022-09-06T07:27:56.500Z,52.61
2022-09-06T07:30:25.462Z,52.17
2022-09-06T07:32:54.360Z,52.42
2022-09-06T07:35:23.319Z,52.65
2022-09-06T07:38:00.434Z,52.72
2022-09-06T07:40:31.902Z,52.76
2022-09-06T07:43:01.042Z,52.94
2022-09-06T07:45:30.461Z,53.54
2022-09-06T07:48:00.309Z,53.76
2022-09-06T07:50:48.469Z,54.08
2022-09-06T07:53:30.485Z,54.80
2022-09-06T07:56:06.118Z,55.11
2022-09-06T07:58:35.584Z,55.44
2022-09-06T08:01:31.382Z,55.71
2022-09-06T08:04:09.310Z,55.83
2022-09-06T08:09:29.646Z,56.34
2022-09-06T08:11:58.588Z,57.05
2022-09-06T08:14:27.397Z,57.44
2022-09-06T08:16:56.212Z,57.66
2022-09-06T08:19:25.326Z,58.37
2022-09-06T08:21:57.121Z,58.61
2022-09-06T08:24:25.932Z,58.95
2022-09-06T08:26:54.846Z,59.21
2022-09-06T08:29:23.654Z,59.29
2022-09-06T08:31:52.544Z,59.68
2022-09-06T08:34:21.467Z,59.84
2022-09-06T08:36:50.411Z,59.90
2022-09-06T08:39:19.536Z,60.07
2022-09-06T08:42:08.984Z,60.30
2022-09-06T08:47:23.254Z,60.67
2022-09-06T08:50:01.890Z,60.79
2022-09-06T08:53:16.865Z,61.25
2022-09-06T08:56:39.225Z,61.50
2022-09-06T08:59:14.460Z,61.44
2022-09-06T09:02:07.075Z,61.74
2022-09-06T09:04:39.514Z,61.70
2022-09-06T09:07:37.751Z,62.06
2022-09-06T09:10:30.863Z,62.19
2022-09-06T09:13:03.533Z,62.01
2022-09-06T09:15:34.301Z,62.07
2022-09-06T09:18:06.025Z,62.43
2022-09-06T09:20:35.023Z,62.76
2022-09-06T09:23:03.842Z,62.97
2022-09-06T09:25:35.011Z,62.85
2022-09-06T09:28:04.020Z,63.05
2022-09-06T09:30:53.666Z,63.29
2022-09-06T09:33:24.062Z,63.13
2022-09-06T09:35:53.320Z,63.37
2022-09-06T09:38:32.209Z,63.49
2022-09-06T09:41:08.189Z,63.58
2022-09-06T09:44:04.613Z,63.71
2022-09-06T09:46:36.909Z,63.56
2022-09-06T09:49:08.251Z,63.93
2022-09-06T09:51:41.211Z,64.13
2022-09-06T09:54:12.535Z,64.04
2022-09-06T09:56:46.632Z,64.20
2022-09-06T09:59:56.539Z,63.85
2022-09-06T10:02:31.281Z,63.85
2022-09-06T10:05:05.588Z,63.99
2022-09-06T10:07:35.286Z,64.10
2022-09-06T10:10:08.320Z,64.13
2022-09-06T10:12:42.175Z,64.33
2022-09-06T10:15:36.855Z,64.26
2022-09-06T10:18:05.986Z,64.47
2022-09-06T10:20:43.085Z,64.77
2022-09-06T10:26:39.306Z,64.31
2022-09-06T10:29:12.203Z,64.40
2022-09-06T10:31:42.738Z,64.78
2022-09-06T10:34:30.554Z,64.80
2022-09-06T10:37:14.488Z,65.08
2022-09-06T10:40:00.517Z,65.03
2022-09-06T10:42:46.843Z,65.10
2022-09-06T10:45:28.750Z,65.23
2022-09-06T10:48:25.255Z,64.99
2022-09-06T10:51:12.526Z,65.31
2022-09-06T10:53:57.060Z,65.58
2022-09-06T10:56:30.539Z,65.45
2022-09-06T11:02:17.840Z,66.10
2022-09-06T11:10:41.027Z,66.46
2022-09-06T11:13:22.412Z,66.72
2022-09-06T11:16:07.661Z,66.81
2022-09-06T11:18:45.718Z,66.95
2022-09-06T11:21:46.984Z,67.16
2022-09-06T11:24:42.292Z,66.97
2022-09-06T11:27:41.153Z,67.00
2022-09-06T11:30:16.501Z,67.21
2022-09-06T11:32:50.302Z,66.87
2022-09-06T11:35:29.425Z,67.51
2022-09-06T11:38:18.898Z,67.50
2022-09-06T11:40:53.031Z,67.40
2022-09-06T11:43:47.088Z,67.92
2022-09-06T11:46:35.615Z,67.64
2022-09-06T11:49:17.933Z,68.00
2022-09-06T11:51:47.471Z,67.81
2022-09-06T11:54:24.559Z,68.14
2022-09-06T11:57:09.411Z,68.14
2022-09-06T11:59:50.790Z,67.72
2022-09-06T12:02:41.548Z,68.48
2022-09-06T12:05:20.242Z,68.10
2022-09-06T12:08:23.935Z,68.16
2022-09-06T12:11:31.314Z,68.36
2022-09-06T12:14:04.893Z,68.13
2022-09-06T12:16:58.684Z,68.68
2022-09-06T12:19:44.528Z,68.47
2022-09-06T12:22:40.850Z,68.51
2022-09-06T12:25:19.050Z,68.51
2022-09-06T12:28:23.127Z,68.64
2022-09-06T12:30:52.298Z,68.30
2022-09-06T12:33:38.667Z,68.80
2022-09-06T12:36:31.618Z,68.68
2022-09-06T12:39:09.994Z,68.67
2022-09-06T12:41:46.161Z,68.98
2022-09-06T12:44:17.613Z,68.76
2022-09-06T12:46:52.119Z,69.00
2022-09-06T12:49:24.105Z,68.66
2022-09-06T12:52:08.156Z,68.77
2022-09-06T12:54:44.101Z,68.88
2022-09-06T12:57:19.682Z,69.11
2022-09-06T12:59:54.698Z,68.97
2022-09-06T13:02:27.331Z,69.28
2022-09-06T13:05:07.002Z,69.08
2022-09-06T13:07:40.832Z,69.10
2022-09-06T13:10:11.169Z,69.10
2022-09-06T13:12:44.378Z,69.57
2022-09-06T13:15:23.520Z,69.57
2022-09-06T13:17:54.079Z,69.55
2022-09-06T13:20:24.568Z,69.46
2022-09-06T13:22:54.931Z,69.75
2022-09-06T13:25:26.662Z,70.40
2022-09-06T13:28:02.078Z,69.74
2022-09-06T13:30:30.996Z,69.63
2022-09-06T13:33:00.681Z,69.88
2022-09-06T13:35:32.824Z,69.88
2022-09-06T13:38:34.224Z,70.46
2022-09-06T13:41:14.596Z,70.16
2022-09-06T13:43:49.072Z,70.48
2022-09-06T13:46:17.978Z,70.11
2022-09-06T13:48:46.939Z,70.27
2022-09-06T13:51:15.954Z,70.24
2022-09-06T13:53:44.766Z,70.90
2022-09-06T13:56:13.541Z,70.91
2022-09-06T13:58:42.464Z,70.94
2022-09-06T14:01:12.509Z,71.27
2022-09-06T14:03:42.929Z,71.57
2022-09-06T14:06:11.973Z,71.28
2022-09-06T14:09:05.822Z,71.80
2022-09-06T14:11:29.796Z,71.53
2022-09-06T14:13:58.665Z,71.34
2022-09-06T14:16:27.645Z,71.92
2022-09-06T14:18:56.824Z,71.97
2022-09-06T14:21:25.667Z,72.03
2022-09-06T14:23:54.982Z,72.06
2022-09-06T14:26:25.827Z,71.96
2022-09-06T14:28:55.791Z,72.14
2022-09-06T14:31:27.676Z,71.76
2022-09-06T14:33:58.037Z,71.95
2022-09-06T14:36:32.163Z,71.83
2022-09-06T14:39:02.426Z,71.79
2022-09-06T14:41:31.550Z,72.31
2022-09-06T14:44:00.909Z,71.81
2022-09-06T14:46:30.449Z,71.91
2022-09-06T14:49:07.834Z,71.89
2022-09-06T14:51:39.193Z,72.26
2022-09-06T14:54:11.520Z,71.97
2022-09-06T14:56:42.562Z,71.75
2022-09-06T14:59:12.370Z,72.28
2022-09-06T15:01:42.416Z,72.10
2022-09-06T15:04:12.334Z,72.13
2022-09-06T15:06:45.438Z,71.89
2022-09-06T15:09:15.326Z,72.01
2022-09-06T15:11:50.342Z,72.01
2022-09-06T15:14:27.780Z,72.25
2022-09-06T15:17:00.133Z,72.33
2022-09-06T15:19:30.719Z,72.10
2022-09-06T15:21:59.624Z,72.06
2022-09-06T15:24:29.313Z,72.60
2022-09-06T15:26:58.610Z,72.42
2022-09-06T15:29:27.985Z,72.39
2022-09-06T15:31:56.820Z,72.08
2022-09-06T15:34:27.325Z,72.46
2022-09-06T15:36:57.682Z,72.33
2022-09-06T15:39:26.517Z,72.51
2022-09-06T15:41:55.449Z,72.00
2022-09-06T15:44:24.272Z,72.19
2022-09-06T15:46:54.022Z,72.04
2022-09-06T15:49:28.168Z,72.37
2022-09-06T15:52:01.384Z,72.26
2022-09-06T15:54:49.711Z,72.35
2022-09-06T15:57:18.955Z,72.13
2022-09-06T15:59:47.939Z,72.17
2022-09-06T16:02:18.041Z,72.25
2022-09-06T16:04:47.282Z,72.28
2022-09-06T16:07:16.239Z,72.17
2022-09-06T16:09:45.909Z,72.76
2022-09-06T16:12:15.035Z,72.73
2022-09-06T16:14:43.885Z,72.71
2022-09-06T16:17:12.914Z,72.35
2022-09-06T16:19:41.743Z,72.53
2022-09-06T16:22:10.693Z,72.55
2022-09-06T16:24:39.539Z,72.78
2022-09-06T16:27:08.426Z,72.85
2022-09-06T16:29:37.321Z,72.56
2022-09-06T16:32:06.201Z,72.47
2022-09-06T16:34:34.994Z,72.46
2022-09-06T16:37:08.411Z,72.58
2022-09-06T16:39:37.522Z,72.78
2022-09-06T16:42:06.961Z,72.47
2022-09-06T16:44:35.691Z,72.30
2022-09-06T16:47:05.232Z,72.74
2022-09-06T16:49:34.041Z,72.52
2022-09-06T16:52:03.107Z,72.65
2022-09-06T16:54:32.061Z,72.59
2022-09-06T16:57:02.443Z,72.65
2022-09-06T16:59:31.411Z,72.52
2022-09-06T17:02:01.100Z,72.93
2022-09-06T17:04:30.128Z,72.78
2022-09-06T17:06:59.124Z,72.69
2022-09-06T17:09:27.977Z,72.60
2022-09-06T17:11:56.797Z,72.69
2022-09-06T17:14:25.661Z,73.06
2022-09-06T17:17:07.500Z,73.07
2022-09-06T17:19:44.977Z,72.97
2022-09-06T17:22:14.189Z,72.68
2022-09-06T17:24:43.308Z,73.08
2022-09-06T17:27:12.196Z,72.87
2022-09-06T17:29:41.036Z,73.15
2022-09-06T17:32:11.049Z,72.69
2022-09-06T17:34:41.444Z,72.78
2022-09-06T17:37:10.350Z,73.31
2022-09-06T17:39:39.580Z,73.34
2022-09-06T17:42:09.236Z,72.90
2022-09-06T17:44:38.306Z,73.16
2022-09-06T17:47:14.662Z,73.11
2022-09-06T17:49:44.227Z,73.31
2022-09-06T17:52:13.189Z,73.35
2022-09-06T17:54:42.054Z,73.42
2022-09-06T17:57:10.775Z,73.47
2022-09-06T17:59:40.109Z,73.30
2022-09-06T18:02:09.576Z,73.34
2022-09-06T18:04:38.704Z,73.43
2022-09-06T18:07:07.480Z,73.31
2022-09-06T18:09:37.606Z,73.78
2022-09-06T18:12:07.367Z,73.41
2022-09-06T18:14:36.400Z,73.90
2022-09-06T18:17:05.308Z,73.51
2022-09-06T18:19:34.149Z,73.60
2022-09-06T18:22:03.016Z,73.64
2022-09-06T18:24:31.767Z,73.65
2022-09-06T18:27:03.344Z,73.65
2022-09-06T18:29:32.183Z,74.10
2022-09-06T18:32:01.019Z,73.81
2022-09-06T18:34:29.817Z,74.05
2022-09-06T18:36:59.348Z,73.84
2022-09-06T18:39:28.296Z,73.74
2022-09-06T18:42:07.643Z,73.60
2022-09-06T18:44:36.984Z,73.95
2022-09-06T18:47:08.672Z,73.86
2022-09-06T18:49:41.844Z,74.34
2022-09-06T18:52:12.670Z,73.79
2022-09-06T18:54:41.799Z,73.91
2022-09-06T18:57:10.561Z,73.86
2022-09-06T18:59:39.395Z,73.85
2022-09-06T19:02:08.996Z,74.11
2022-09-06T19:04:38.133Z,74.05
2022-09-06T19:07:07.180Z,74.04
2022-09-06T19:09:36.019Z,73.48
2022-09-06T19:12:05.503Z,73.88
2022-09-06T19:14:34.271Z,73.49
2022-09-06T19:17:03.406Z,73.62
2022-09-06T19:19:33.579Z,73.89
2022-09-06T19:22:02.530Z,73.76
2022-09-06T19:24:31.299Z,73.55
2022-09-06T19:27:00.064Z,73.59
2022-09-06T19:29:29.188Z,73.65
2022-09-06T19:31:58.015Z,73.55
2022-09-06T19:34:26.835Z,73.49
2022-09-06T19:36:55.931Z,73.92
2022-09-06T19:39:32.331Z,74.08
2022-09-06T19:42:03.766Z,73.98
2022-09-06T19:44:33.987Z,74.04
2022-09-06T19:47:02.800Z,74.01
2022-09-06T19:49:31.598Z,74.58
2022-09-06T19:52:00.362Z,74.34
2022-09-06T19:54:29.513Z,74.41
2022-09-06T19:56:58.484Z,74.39
2022-09-06T19:59:27.362Z,74.14
2022-09-06T20:01:56.731Z,74.75
2022-09-06T20:04:27.668Z,74.48
2022-09-06T20:06:56.581Z,74.18
2022-09-06T20:09:25.409Z,74.77
2022-09-06T20:11:54.232Z,74.45
2022-09-06T20:14:23.030Z,74.23
2022-09-06T20:16:52.663Z,74.20
2022-09-06T20:19:21.540Z,74.79
2022-09-06T20:21:50.371Z,74.14
2022-09-06T20:24:19.175Z,74.34
2022-09-06T20:26:48.603Z,74.60
2022-09-06T20:29:17.534Z,74.30
2022-09-06T20:31:46.446Z,74.34
2022-09-06T20:34:18.058Z,74.30
2022-09-06T20:36:46.819Z,73.81
2022-09-06T20:39:15.699Z,73.89
2022-09-06T20:41:44.556Z,73.68
2022-09-06T20:44:13.418Z,74.19
2022-09-06T20:46:42.248Z,74.22
2022-09-06T20:49:12.472Z,74.05
2022-09-06T20:51:43.732Z,74.35
2022-09-06T20:54:12.526Z,74.27
2022-09-06T20:56:42.858Z,74.41
2022-09-06T20:59:13.525Z,74.85
2022-09-06T21:01:45.984Z,74.82
2022-09-06T21:04:17.284Z,74.57
2022-09-06T21:06:51.541Z,74.51
2022-09-06T21:09:20.259Z,74.91
2022-09-06T21:11:49.044Z,74.67
2022-09-06T21:14:18.814Z,75.30
2022-09-06T21:16:47.927Z,75.09
2022-09-06T21:19:17.018Z,75.28
2022-09-06T21:21:45.870Z,75.20
2022-09-06T21:24:14.804Z,75.22
2022-09-06T21:26:44.541Z,75.50
2022-09-06T21:29:13.441Z,75.30
2022-09-06T21:31:42.434Z,75.29
2022-09-06T21:34:16.382Z,75.42
2022-09-06T21:36:46.135Z,75.41
2022-09-06T21:39:15.334Z,75.16
2022-09-06T21:41:44.933Z,74.99
2022-09-06T21:44:14.645Z,74.76
2022-09-06T21:46:43.645Z,75.14
2022-09-06T21:49:14.803Z,74.86
2022-09-06T21:51:43.779Z,75.00
2022-09-06T21:54:12.832Z,75.43
2022-09-06T21:56:41.932Z,75.21
2022-09-06T21:59:11.728Z,75.21
2022-09-06T22:01:44.881Z,75.26
2022-09-06T22:04:14.818Z,74.83
2022-09-06T22:06:43.798Z,75.33
2022-09-06T22:09:13.539Z,75.04
2022-09-06T22:11:44.566Z,75.08
2022-09-06T22:14:15.411Z,74.75
2022-09-06T22:16:44.455Z,75.12
2022-09-06T22:19:14.096Z,75.24
2022-09-06T22:21:43.024Z,75.31
2022-09-06T22:24:13.170Z,75.45
2022-09-06T22:26:42.580Z,75.46
2022-09-06T22:29:14.116Z,75.02
2022-09-06T22:31:43.728Z,75.41
2022-09-06T22:34:12.852Z,75.34
2022-09-06T22:36:41.722Z,75.46
2022-09-06T22:39:10.587Z,75.19
2022-09-06T22:41:39.647Z,75.06
2022-09-06T22:44:08.517Z,75.07
2022-09-06T22:46:38.894Z,75.22
2022-09-06T22:49:07.843Z,75.41
2022-09-06T22:51:36.739Z,75.21
2022-09-06T22:54:05.942Z,75.18
2022-09-06T22:56:34.936Z,75.17
2022-09-06T22:59:04.343Z,75.36
2022-09-06T23:01:39.867Z,75.01
2022-09-06T23:04:10.486Z,75.16
2022-09-06T23:06:39.436Z,74.78
2022-09-06T23:09:08.394Z,75.29
2022-09-06T23:11:37.303Z,75.13
2022-09-06T23:14:06.415Z,75.05
2022-09-06T23:16:35.438Z,74.93
2022-09-06T23:19:04.315Z,74.80
2022-09-06T23:21:33.494Z,74.68
2022-09-06T23:24:02.701Z,74.87
2022-09-06T23:26:33.448Z,74.63
2022-09-06T23:29:03.059Z,74.95
2022-09-06T23:31:33.221Z,74.79
2022-09-06T23:34:03.344Z,74.64
2022-09-06T23:36:33.051Z,74.99
2022-09-06T23:39:02.972Z,74.73
2022-09-06T23:41:31.845Z,74.81
2022-09-06T23:44:01.090Z,74.92
2022-09-06T23:46:30.422Z,74.85
2022-09-06T23:48:59.454Z,74.83
2022-09-06T23:51:28.157Z,74.66
2022-09-06T23:53:56.982Z,74.83
2022-09-06T23:56:25.767Z,74.68
2022-09-06T23:58:54.713Z,74.98
